createdAt,value
2019-06-08T00:02:47.733Z,77.67
2019-06-08T00:05:54.276Z,77.13
2019-06-08T00:09:00.798Z,77.78
2019-06-08T00:12:08.852Z,78.03
2019-06-08T00:15:16.174Z,79.04
2019-06-08T00:18:23.610Z,78.71
2019-06-08T00:21:30.198Z,78.42
2019-06-08T00:24:36.635Z,78.61
2019-06-08T00:27:43.330Z,78.53
2019-06-08T00:30:49.899Z,79.74
2019-06-08T00:33:56.402Z,79.80
2019-06-08T00:37:02.860Z,79.75
2019-06-08T00:40:09.433Z,79.73
2019-06-08T00:43:17.064Z,80.16
2019-06-08T00:46:24.043Z,80.66
2019-06-08T00:49:30.504Z,80.18
2019-06-08T00:52:37.050Z,80.05
2019-06-08T00:55:43.588Z,80.46
2019-06-08T00:58:50.306Z,79.86
2019-06-08T01:01:57.185Z,80.42
2019-06-08T01:05:03.800Z,80.42
2019-06-08T01:08:10.329Z,80.17
2019-06-08T01:11:16.901Z,79.59
2019-06-08T01:14:24.915Z,80.51
2019-06-08T01:17:31.389Z,79.87
2019-06-08T01:20:37.904Z,81.47
2019-06-08T01:23:44.439Z,81.18
2019-06-08T01:26:51.255Z,80.74
2019-06-08T01:29:57.760Z,81.06
2019-06-08T01:33:04.511Z,81.44
2019-06-08T01:36:11.546Z,81.50
2019-06-08T01:39:17.990Z,80.53
2019-06-08T01:42:25.552Z,82.18
2019-06-08T01:45:33.083Z,82.29
2019-06-08T01:48:40.288Z,81.53
2019-06-08T01:51:46.950Z,81.81
2019-06-08T01:54:53.656Z,81.85
2019-06-08T01:58:00.258Z,81.85
2019-06-08T02:01:07.035Z,81.29
2019-06-08T02:04:13.783Z,81.94
2019-06-08T02:07:20.310Z,81.93
2019-06-08T02:10:26.806Z,82.29
2019-06-08T02:13:33.375Z,81.99
2019-06-08T02:16:39.843Z,81.99
2019-06-08T02:19:46.369Z,82.42
2019-06-08T02:22:52.851Z,82.11
2019-06-08T02:26:00.413Z,82.29
2019-06-08T02:29:06.882Z,82.39
2019-06-08T02:32:14.434Z,81.76
2019-06-08T02:35:21.258Z,81.68
2019-06-08T02:38:29.769Z,81.65
2019-06-08T02:41:37.555Z,81.65
2019-06-08T02:44:44.214Z,81.19
2019-06-08T02:47:50.767Z,81.19
2019-06-08T02:50:57.721Z,82.09
2019-06-08T02:54:04.472Z,81.85
2019-06-08T02:57:11.369Z,81.19
2019-06-08T03:00:18.377Z,81.24
2019-06-08T03:03:26.550Z,81.02
2019-06-08T03:06:36.792Z,82.11
2019-06-08T03:09:43.943Z,81.97
2019-06-08T03:12:51.991Z,82.16
2019-06-08T03:15:58.493Z,81.26
2019-06-08T03:19:20.753Z,81.43
2019-06-08T03:22:13.087Z,82.00
2019-06-08T03:25:19.589Z,82.07
2019-06-08T03:28:26.123Z,81.37
2019-06-08T03:31:54.257Z,81.16
2019-06-08T03:34:56.286Z,81.16
2019-06-08T03:38:01.229Z,80.68
2019-06-08T03:41:08.079Z,80.89
2019-06-08T03:44:14.533Z,80.90
2019-06-08T03:47:21.079Z,80.02
2019-06-08T03:50:27.546Z,80.63
2019-06-08T03:53:35.702Z,80.01
2019-06-08T03:56:44.112Z,79.07
2019-06-08T03:59:50.821Z,79.21
2019-06-08T04:02:57.303Z,79.84
2019-06-08T04:06:03.822Z,80.10
2019-06-08T04:09:10.539Z,79.73
2019-06-08T04:12:17.090Z,79.67
2019-06-08T04:15:24.459Z,79.29
2019-06-08T04:18:30.929Z,79.62
2019-06-08T04:21:40.122Z,78.76
2019-06-08T04:24:46.783Z,78.79
2019-06-08T04:27:53.171Z,79.09
2019-06-08T04:30:59.635Z,79.03
2019-06-08T04:34:05.981Z,79.01
2019-06-08T04:37:15.827Z,78.60
2019-06-08T04:40:20.733Z,78.31
2019-06-08T04:43:27.178Z,78.02
2019-06-08T04:46:33.610Z,78.16
2019-06-08T04:49:40.240Z,78.46
2019-06-08T04:52:47.495Z,77.99
2019-06-08T04:55:55.506Z,77.57
2019-06-08T04:59:02.050Z,77.52
2019-06-08T05:02:08.583Z,77.30
2019-06-08T05:05:15.280Z,77.30
2019-06-08T05:08:21.780Z,77.34
2019-06-08T05:11:28.529Z,76.79
2019-06-08T05:14:35.085Z,76.85
2019-06-08T05:17:43.158Z,76.71
2019-06-08T05:20:51.455Z,76.60
2019-06-08T05:23:59.076Z,76.38
2019-06-08T05:27:08.474Z,76.15
2019-06-08T05:30:15.406Z,75.96
2019-06-08T05:33:21.877Z,76.04
2019-06-08T05:36:28.324Z,75.64
2019-06-08T05:39:34.800Z,75.74
2019-06-08T05:42:42.787Z,75.23
2019-06-08T05:45:49.982Z,75.13
2019-06-08T05:48:57.471Z,74.85
2019-06-08T05:52:03.963Z,74.35
2019-06-08T05:55:10.950Z,74.35
2019-06-08T05:58:17.703Z,73.81
2019-06-08T06:01:24.236Z,74.19
2019-06-08T06:04:30.666Z,72.91
2019-06-08T06:07:40.426Z,72.91
2019-06-08T06:10:47.276Z,72.69
2019-06-08T06:13:53.849Z,72.10
2019-06-08T06:17:00.537Z,71.58
2019-06-08T06:20:07.230Z,71.56
2019-06-08T06:23:13.821Z,71.34
2019-06-08T06:26:20.247Z,71.11
2019-06-08T06:29:27.054Z,70.38
2019-06-08T06:32:33.587Z,70.35
2019-06-08T06:35:40.019Z,70.18
2019-06-08T06:38:47.906Z,70.78
2019-06-08T06:41:54.691Z,70.60
2019-06-08T06:45:01.143Z,69.86
2019-06-08T06:48:07.711Z,69.45
2019-06-08T06:51:25.862Z,69.23
2019-06-08T06:54:22.512Z,68.85
2019-06-08T06:57:29.936Z,68.07
2019-06-08T07:00:37.629Z,67.94
2019-06-08T07:03:44.273Z,67.84
2019-06-08T07:06:52.166Z,67.45
2019-06-08T07:09:58.717Z,67.31
2019-06-08T07:13:05.197Z,66.05
2019-06-08T07:16:18.597Z,66.25
2019-06-08T07:19:20.457Z,65.81
2019-06-08T07:22:27.080Z,65.26
2019-06-08T07:25:33.898Z,64.41
2019-06-08T07:28:40.356Z,62.39
2019-06-08T07:31:48.313Z,63.03
2019-06-08T07:34:55.433Z,58.98
2019-06-08T07:38:02.300Z,58.98
2019-06-08T07:41:08.747Z,58.66
2019-06-08T07:44:15.336Z,57.79
2019-06-08T07:47:21.854Z,56.92
2019-06-08T07:50:28.357Z,57.35
2019-06-08T07:53:34.872Z,56.45
2019-06-08T07:56:41.680Z,55.30
2019-06-08T07:59:49.195Z,53.98
2019-06-08T08:02:56.788Z,54.18
2019-06-08T08:06:03.270Z,52.29
2019-06-08T08:09:09.716Z,52.50
2019-06-08T08:12:16.242Z,52.55
2019-06-08T08:15:22.694Z,52.55
2019-06-08T08:18:29.351Z,49.26
2019-06-08T08:21:37.977Z,48.64
2019-06-08T08:24:44.248Z,48.64
2019-06-08T08:27:51.901Z,49.97
2019-06-08T08:31:01.666Z,50.51
2019-06-08T08:34:08.951Z,50.99
2019-06-08T08:37:17.412Z,50.71
2019-06-08T08:40:23.428Z,49.30
2019-06-08T08:43:29.888Z,49.30
2019-06-08T08:46:38.748Z,49.85
2019-06-08T08:49:44.598Z,48.61
2019-06-08T08:52:52.285Z,49.21
2019-06-08T08:56:01.226Z,48.53
2019-06-08T08:59:07.783Z,49.29
2019-06-08T09:02:20.504Z,48.40
2019-06-08T09:05:23.501Z,48.45
2019-06-08T09:08:30.128Z,47.62
2019-06-08T09:11:38.344Z,48.05
2019-06-08T09:14:47.744Z,48.41
2019-06-08T09:17:53.844Z,47.80
2019-06-08T09:21:02.855Z,47.14
2019-06-08T09:24:08.859Z,47.14
2019-06-08T09:27:17.751Z,47.31
2019-06-08T09:30:23.420Z,45.31
2019-06-08T09:33:29.886Z,46.73
2019-06-08T09:36:37.558Z,46.59
2019-06-08T09:39:44.746Z,47.02
2019-06-08T09:42:55.432Z,47.02
2019-06-08T09:46:02.044Z,45.97
2019-06-08T09:49:11.676Z,45.12
2019-06-08T09:52:18.382Z,44.06
2019-06-08T09:55:28.691Z,44.88
2019-06-08T09:58:34.111Z,45.83
2019-06-08T10:01:40.600Z,44.63
2019-06-08T10:04:48.351Z,43.94
2019-06-08T10:07:56.856Z,44.03
2019-06-08T10:11:05.644Z,44.73
2019-06-08T10:14:12.721Z,42.73
2019-06-08T10:17:20.992Z,43.57
2019-06-08T10:20:28.864Z,43.57
2019-06-08T10:23:41.196Z,43.73
2019-06-08T10:26:44.417Z,42.91
2019-06-08T10:29:51.024Z,42.13
2019-06-08T10:33:00.441Z,42.12
2019-06-08T10:36:09.497Z,41.88
2019-06-08T10:39:14.002Z,41.70
2019-06-08T10:42:20.528Z,41.73
2019-06-08T10:45:28.616Z,41.87
2019-06-08T10:48:37.519Z,42.00
2019-06-08T10:51:43.325Z,42.48
2019-06-08T10:54:50.821Z,43.13
2019-06-08T10:57:58.500Z,42.43
2019-06-08T11:01:10.790Z,42.38
2019-06-08T11:04:14.229Z,42.38
2019-06-08T11:07:20.767Z,41.83
2019-06-08T11:10:27.484Z,41.83
2019-06-08T11:13:33.888Z,41.76
2019-06-08T11:16:40.415Z,41.34
2019-06-08T11:19:48.034Z,41.69
2019-06-08T11:22:57.843Z,41.58
2019-06-08T11:26:07.683Z,40.57
2019-06-08T11:29:13.815Z,39.79
2019-06-08T11:32:20.050Z,39.77
2019-06-08T11:35:28.580Z,39.77
2019-06-08T11:38:34.732Z,38.93
2019-06-08T11:41:41.189Z,38.99
2019-06-08T11:44:51.212Z,38.97
2019-06-08T11:48:00.683Z,38.27
2019-06-08T11:51:09.594Z,38.20
2019-06-08T11:54:29.530Z,36.83
2019-06-08T11:57:23.696Z,36.60
2019-06-08T12:00:52.510Z,36.58
2019-06-08T12:03:58.863Z,36.39
2019-06-08T12:07:07.052Z,35.62
2019-06-08T12:10:14.171Z,36.27
2019-06-08T12:13:21.839Z,35.90
2019-06-08T12:16:28.458Z,35.54
2019-06-08T12:19:37.694Z,34.16
2019-06-08T12:22:44.420Z,34.18
2019-06-08T12:25:51.083Z,35.23
2019-06-08T12:28:58.430Z,34.26
2019-06-08T12:32:08.824Z,34.63
2019-06-08T12:35:14.073Z,34.55
2019-06-08T12:38:20.477Z,34.94
2019-06-08T12:41:28.879Z,35.70
2019-06-08T12:44:38.313Z,37.42
2019-06-08T12:47:44.522Z,37.68
2019-06-08T12:50:51.970Z,36.96
2019-06-08T12:54:00.251Z,36.71
2019-06-08T12:57:12.184Z,36.97
2019-06-08T13:00:19.661Z,39.68
2019-06-08T13:03:24.923Z,40.06
2019-06-08T13:06:31.354Z,38.87
2019-06-08T13:09:38.258Z,38.46
2019-06-08T13:12:44.987Z,40.11
2019-06-08T13:15:51.460Z,39.80
2019-06-08T13:18:58.676Z,39.81
2019-06-08T13:22:05.348Z,39.44
2019-06-08T13:25:25.886Z,38.56
2019-06-08T13:28:24.985Z,39.47
2019-06-08T13:31:28.965Z,38.54
2019-06-08T13:34:35.562Z,37.85
2019-06-08T13:37:42.127Z,37.39
2019-06-08T13:40:48.603Z,37.37
2019-06-08T13:43:55.027Z,36.67
2019-06-08T13:47:01.455Z,36.64
2019-06-08T13:50:08.255Z,37.80
2019-06-08T13:53:19.247Z,35.99
2019-06-08T13:56:24.680Z,36.77
2019-06-08T13:59:31.178Z,37.22
2019-06-08T14:02:39.695Z,36.40
2019-06-08T14:05:47.355Z,36.19
2019-06-08T14:08:54.004Z,38.31
2019-06-08T14:12:00.559Z,38.31
2019-06-08T14:15:08.654Z,37.61
2019-06-08T14:18:20.890Z,39.43
2019-06-08T14:21:35.646Z,40.04
2019-06-08T14:24:34.416Z,40.53
2019-06-08T14:27:39.859Z,39.89
2019-06-08T14:30:47.951Z,39.63
2019-06-08T14:33:55.097Z,40.06
2019-06-08T14:37:01.597Z,39.99
2019-06-08T14:40:08.411Z,39.99
2019-06-08T14:43:14.896Z,41.04
2019-06-08T14:46:23.134Z,40.76
2019-06-08T14:49:34.728Z,41.64
2019-06-08T14:52:38.282Z,41.99
2019-06-08T14:55:44.798Z,43.02
2019-06-08T14:58:51.215Z,42.92
2019-06-08T15:01:57.852Z,44.02
2019-06-08T15:05:04.933Z,44.74
2019-06-08T15:08:11.490Z,43.75
2019-06-08T15:11:18.028Z,44.96
2019-06-08T15:14:25.771Z,45.00
2019-06-08T15:17:32.368Z,44.52
2019-06-08T15:20:38.984Z,45.33
2019-06-08T15:23:47.214Z,44.39
2019-06-08T15:26:53.613Z,45.07
2019-06-08T15:30:00.194Z,45.05
2019-06-08T15:33:06.630Z,46.33
2019-06-08T15:36:13.339Z,46.41
2019-06-08T15:39:19.776Z,45.33
2019-06-08T15:42:28.714Z,45.23
2019-06-08T15:45:34.423Z,46.15
2019-06-08T15:48:40.859Z,45.53
2019-06-08T15:51:48.145Z,45.32
2019-06-08T15:54:58.090Z,45.38
2019-06-08T15:58:02.856Z,45.17
2019-06-08T16:01:09.279Z,46.79
2019-06-08T16:04:15.748Z,45.41
2019-06-08T16:07:22.272Z,45.64
2019-06-08T16:10:30.292Z,45.29
2019-06-08T16:13:36.648Z,45.33
2019-06-08T16:16:43.119Z,44.87
2019-06-08T16:19:53.013Z,43.81
2019-06-08T16:22:58.207Z,44.19
2019-06-08T16:26:04.611Z,41.96
2019-06-08T16:29:10.960Z,41.97
2019-06-08T16:32:17.429Z,37.96
2019-06-08T16:35:23.902Z,35.89
2019-06-08T16:38:30.445Z,37.14
2019-06-08T16:41:36.954Z,37.12
2019-06-08T16:44:43.395Z,35.38
2019-06-08T16:47:49.890Z,35.18
2019-06-08T16:50:56.317Z,35.68
2019-06-08T16:54:03.386Z,36.18
2019-06-08T16:57:11.208Z,36.54
2019-06-08T17:00:30.656Z,37.30
2019-06-08T17:03:26.372Z,37.63
2019-06-08T17:06:33.593Z,39.19
2019-06-08T17:09:41.158Z,40.41
2019-06-08T17:12:47.911Z,41.63
2019-06-08T17:15:54.374Z,42.68
2019-06-08T17:19:00.924Z,43.70
2019-06-08T17:22:07.815Z,44.10
2019-06-08T17:25:16.130Z,44.24
2019-06-08T17:28:22.553Z,45.28
2019-06-08T17:31:29.128Z,45.86
2019-06-08T17:34:36.647Z,46.12
2019-06-08T17:37:43.466Z,47.01
2019-06-08T17:40:50.109Z,47.66
2019-06-08T17:43:56.511Z,49.61
2019-06-08T17:47:02.921Z,51.28
2019-06-08T17:50:09.643Z,51.30
2019-06-08T17:53:16.087Z,52.77
2019-06-08T17:56:22.612Z,53.83
2019-06-08T17:59:29.155Z,55.44
2019-06-08T18:02:38.329Z,56.78
2019-06-08T18:05:45.611Z,56.75
2019-06-08T18:08:52.570Z,56.83
2019-06-08T18:11:59.704Z,57.68
2019-06-08T18:15:07.865Z,58.54
2019-06-08T18:18:14.528Z,58.58
2019-06-08T18:21:21.407Z,58.26
2019-06-08T18:24:28.112Z,58.78
2019-06-08T18:27:39.212Z,59.87
2019-06-08T18:30:45.154Z,59.35
2019-06-08T18:33:53.200Z,59.16
2019-06-08T18:36:59.686Z,59.08
2019-06-08T18:40:07.456Z,59.66
2019-06-08T18:43:14.161Z,59.98
2019-06-08T18:46:21.696Z,59.50
2019-06-08T18:49:29.148Z,59.18
2019-06-08T18:52:39.876Z,60.42
2019-06-08T18:55:45.667Z,59.57
2019-06-08T18:58:53.717Z,60.00
2019-06-08T19:02:00.369Z,60.10
2019-06-08T19:05:08.425Z,60.10
2019-06-08T19:08:15.036Z,60.08
2019-06-08T19:11:21.603Z,60.45
2019-06-08T19:14:29.096Z,60.96
2019-06-08T19:17:39.786Z,60.33
2019-06-08T19:20:47.075Z,60.47
2019-06-08T19:23:52.462Z,60.73
2019-06-08T19:26:59.994Z,60.83
2019-06-08T19:30:07.804Z,60.91
2019-06-08T19:33:14.279Z,60.81
2019-06-08T19:36:21.324Z,60.66
2019-06-08T19:39:28.282Z,61.30
2019-06-08T19:42:40.584Z,62.14
2019-06-08T19:45:44.256Z,63.80
2019-06-08T19:48:54.872Z,62.59
2019-06-08T19:52:00.150Z,64.19
2019-06-08T19:55:07.905Z,64.20
2019-06-08T19:58:14.639Z,63.39
2019-06-08T20:01:21.250Z,63.97
2019-06-08T20:04:27.890Z,64.88
2019-06-08T20:07:37.618Z,66.19
2019-06-08T20:10:43.566Z,66.19
2019-06-08T20:13:51.529Z,65.93
2019-06-08T20:16:58.246Z,66.98
2019-06-08T20:20:10.294Z,69.49
2019-06-08T20:23:15.286Z,71.31
2019-06-08T20:26:21.756Z,72.08
2019-06-08T20:29:28.644Z,70.09
2019-06-08T20:32:37.745Z,71.79
2019-06-08T20:35:43.622Z,72.60
2019-06-08T20:38:50.898Z,71.88
2019-06-08T20:41:58.521Z,72.95
2019-06-08T20:45:07.947Z,73.51
2019-06-08T20:48:14.295Z,75.13
2019-06-08T20:51:20.995Z,75.79
2019-06-08T20:54:27.942Z,76.37
2019-06-08T20:57:34.493Z,76.95
2019-06-08T21:00:40.967Z,76.95
2019-06-08T21:03:48.612Z,78.26
2019-06-08T21:06:57.355Z,78.26
2019-06-08T21:10:04.294Z,78.42
2019-06-08T21:13:10.736Z,78.49
2019-06-08T21:16:18.187Z,78.49
2019-06-08T21:19:24.828Z,78.19
2019-06-08T21:22:32.384Z,78.59
2019-06-08T21:25:38.889Z,77.94
2019-06-08T21:28:47.194Z,78.31
2019-06-08T21:31:55.262Z,78.24
2019-06-08T21:35:01.770Z,79.00
2019-06-08T21:38:22.631Z,77.65
2019-06-08T21:41:17.240Z,77.27
2019-06-08T21:44:23.794Z,77.47
2019-06-08T21:47:30.307Z,77.69
2019-06-08T21:50:38.152Z,77.41
2019-06-08T21:53:46.997Z,77.41
2019-06-08T21:56:53.238Z,77.29
2019-06-08T22:00:21.999Z,77.75
2019-06-08T22:03:10.827Z,77.45
2019-06-08T22:06:17.765Z,76.59
2019-06-08T22:09:24.359Z,75.74
2019-06-08T22:12:30.901Z,75.71
2019-06-08T22:15:37.894Z,73.97
2019-06-08T22:18:47.470Z,73.97
2019-06-08T22:21:54.260Z,75.09
2019-06-08T22:25:01.765Z,75.30
2019-06-08T22:28:08.213Z,75.46
2019-06-08T22:31:16.972Z,74.89
2019-06-08T22:34:22.915Z,75.11
2019-06-08T22:37:31.143Z,74.79
2019-06-08T22:40:37.518Z,74.48
2019-06-08T22:43:44.040Z,74.48
2019-06-08T22:46:50.622Z,74.83
2019-06-08T22:50:00.258Z,74.53
2019-06-08T22:53:08.046Z,74.57
2019-06-08T22:56:14.639Z,74.58
2019-06-08T22:59:21.191Z,74.82
2019-06-08T23:02:27.873Z,74.97
2019-06-08T23:05:34.286Z,75.07
2019-06-08T23:08:40.825Z,74.92
2019-06-08T23:11:47.427Z,74.96
2019-06-08T23:14:54.365Z,75.33
2019-06-08T23:18:02.569Z,74.41
2019-06-08T23:21:09.128Z,75.02
2019-06-08T23:24:18.071Z,75.02
2019-06-08T23:27:27.051Z,73.63
2019-06-08T23:30:33.191Z,75.13
2019-06-08T23:33:39.730Z,75.07
2019-06-08T23:36:57.607Z,75.20
2019-06-08T23:39:54.598Z,74.44
2019-06-08T23:43:01.625Z,75.25
2019-06-08T23:46:09.748Z,74.72
2019-06-08T23:49:18.670Z,74.05
2019-06-08T23:52:24.512Z,74.36
2019-06-08T23:55:31.343Z,74.58
2019-06-08T23:58:39.114Z,74.78
